Home > Products > Valid Products > TAF

000
FTUS46 KEKA 060529
TAFUKI
TAF
KUKI 060529Z 0606/0706 27004KT P6SM FEW250
     FM062000 31007KT P6SM SCT250=



000
FTUS46 KEKA 060529
TAFCEC
TAF
KCEC 060529Z 0606/0706 VRB03KT P6SM FEW250
     FM061900 31008KT P6SM SCT250=



000
FTUS46 KEKA 060529
TAFACV
TAF
KACV 060529Z 0606/0706 09003KT P6SM FEW250
     FM061800 32007KT P6SM SCT250=



000
FTUS46 KEKA 052327
TAFACV
TAF
KACV 052327Z 0600/0624 30006KT P6SM SKC
     FM060300 09003KT P6SM SKC=



000
FTUS46 KEKA 052327
TAFCEC
TAF
KCEC 052327Z 0600/0624 VRB05KT P6SM SKC=



000
FTUS46 KEKA 052327
TAFUKI
TAF
KUKI 052327Z 0600/0624 VRB03KT P6SM SKC=



000
FTUS46 KEKA 051720
TAFUKI
TAF
KUKI 051720Z 0518/0618 VRB03KT P6SM SKC=



000
FTUS46 KEKA 051720
TAFACV
TAF
KACV 051720Z 0518/0618 30006KT P6SM SKC
     FM060300 09003KT P6SM SKC=



000
FTUS46 KEKA 051720
TAFCEC
TAF
KCEC 051720Z 0518/0618 VRB05KT P6SM SKC=



000
FTUS46 KEKA 051149
TAFCEC
TAF
KCEC 051149Z 0512/0612 10004KT P6SM SKC
     FM051500 12003KT P6SM SKC
     FM052000 22005KT P6SM SKC
     FM052200 30007KT P6SM SKC
     FM060300 10003KT P6SM SKC=



000
FTUS46 KEKA 051149
TAFUKI
TAF
KUKI 051149Z 0512/0612 00000KT P6SM SKC
     FM052200 31007KT P6SM SKC
     FM060300 00000KT P6SM SKC=



000
FTUS46 KEKA 051149
TAFACV
TAF
KACV 051149Z 0512/0612 10003KT P6SM SCT002
     FM051800 26005KT P6SM SKC
     FM052200 30006KT P6SM SKC
     FM060400 10003KT P6SM SKC=



000
FTUS46 KEKA 051149
TAFACV
TAF
KACV 051149Z 0512/0612 10003KT P6SM SCT002
     FM051800 26005KT P6SM SKC
     FM052200 30006KT P6SM SKC
     FM060400 10003KT P6SM SKC=



000
FTUS46 KEKA 051149
TAFCEC
TAF
KCEC 051149Z 0512/0612 10004KT P6SM SKC
     FM051500 12003KT P6SM SKC
     FM052000 22005KT P6SM SKC
     FM052200 30007KT P6SM SKC
     FM060300 10003KT P6SM SKC=



000
FTUS46 KEKA 051149
TAFUKI
TAF
KUKI 051149Z 0512/0612 00000KT P6SM SKC
     FM052200 31007KT P6SM SKC
     FM060300 00000KT P6SM SKC=



000
FTUS46 KEKA 050533
TAFCEC
TAF
KCEC 050533Z 0506/0606 13004KT P6SM SKC
     FM051200 00000KT 6SM BR SKC
     FM051500 10003KT P6SM SKC
     FM052100 30005KT P6SM SKC=



000
FTUS46 KEKA 050533
TAFUKI
TAF
KUKI 050533Z 0506/0606 27004KT P6SM SKC=



000
FTUS46 KEKA 050533
TAFACV
TAF
KACV 050533Z 0506/0606 00000KT P6SM SKC
     FM051200 00000KT 5SM BR SCT002
     FM051500 00000KT P6SM SKC
     FM052100 28005KT P6SM SKC=



000
FTUS46 KEKA 042324
TAFACV
TAF
KACV 042324Z 0500/0524 30005KT P6SM SKC
     FM050200 VRB03KT P6SM SKC=



000
FTUS46 KEKA 042324
TAFUKI
TAF
KUKI 042324Z 0500/0524 VRB03KT P6SM SKC=



000
FTUS46 KEKA 042324
TAFACV
TAF
KACV 042324Z 0500/0524 30005KT P6SM SKC
     FM050200 VRB03KT P6SM SKC=



000
FTUS46 KEKA 042324
TAFCEC
TAF
KCEC 042324Z 0500/0524 33007KT P6SM SKC
     FM050400 VRB03KT P6SM SKC=



000
FTUS46 KEKA 042324
TAFUKI
TAF
KUKI 042324Z 0500/0524 VRB03KT P6SM SKC=



000
FTUS46 KEKA 042324
TAFCEC
TAF
KCEC 042324Z 0500/0524 33007KT P6SM SKC
     FM050400 VRB03KT P6SM SKC=



000
FTUS46 KEKA 041722
TAFCEC
TAF
KCEC 041722Z 0418/0518 32008KT P6SM SKC
     FM050400 VRB03KT P6SM SKC=



000
FTUS46 KEKA 041722
TAFACV
TAF
KACV 041722Z 0418/0518 31006KT P6SM SKC
     FM050200 VRB03KT P6SM SKC=



000
FTUS46 KEKA 041722
TAFUKI
TAF
KUKI 041722Z 0418/0518 VRB03KT P6SM SKC=



000
FTUS46 KEKA 041722
TAFCEC
TAF
KCEC 041722Z 0418/0518 32008KT P6SM SKC
     FM050400 VRB03KT P6SM SKC=



000
FTUS46 KEKA 041722
TAFACV
TAF
KACV 041722Z 0418/0518 31006KT P6SM SKC
     FM050200 VRB03KT P6SM SKC=



000
FTUS46 KEKA 041722
TAFUKI
TAF
KUKI 041722Z 0418/0518 VRB03KT P6SM SKC=



000
FTUS46 KEKA 041135
TAFACV
TAF
KACV 041135Z 0412/0512 10004KT P6SM FEW015
     FM041800 32005KT P6SM SKC
     FM042000 30008KT P6SM SKC
     FM050200 VRB04KT P6SM SKC
     FM050600 10003KT P6SM SKC=



000
FTUS46 KEKA 041135
TAFUKI
TAF
KUKI 041135Z 0412/0512 00000KT 6SM BR FEW200
     FM041800 VRB04KT P6SM SKC
     FM050500 00000KT P6SM SKC=



000
FTUS46 KEKA 041135
TAFCEC
TAF
KCEC 041135Z 0412/0512 09005KT P6SM SKC
     FM041800 31007KT P6SM SKC
     FM042100 33010KT P6SM SKC
     FM050300 01005KT P6SM SKC
     FM050600 10003KT P6SM SKC=



000
FTUS46 KEKA 041135
TAFUKI
TAF
KUKI 041135Z 0412/0512 00000KT 6SM BR FEW200
     FM041800 VRB04KT P6SM SKC
     FM050500 00000KT P6SM SKC=



000
FTUS46 KEKA 041135
TAFCEC
TAF
KCEC 041135Z 0412/0512 09005KT P6SM SKC
     FM041800 31007KT P6SM SKC
     FM042100 33010KT P6SM SKC
     FM050300 01005KT P6SM SKC
     FM050600 10003KT P6SM SKC=



000
FTUS46 KEKA 041135
TAFACV
TAF
KACV 041135Z 0412/0512 10004KT P6SM FEW015
     FM041800 32005KT P6SM SKC
     FM042000 30008KT P6SM SKC
     FM050200 VRB04KT P6SM SKC
     FM050600 10003KT P6SM SKC=



000
FTUS46 KEKA 040520
TAFUKI
TAF
KUKI 040520Z 0406/0506 00000KT 6SM BR FEW200
     FM041800 VRB04KT P6SM SKC=



000
FTUS46 KEKA 040520
TAFACV
TAF
KACV 040520Z 0406/0506 10004KT P6SM FEW015
     FM041800 32005KT P6SM SKC
     FM042000 30008KT P6SM SKC
     FM050200 VRB04KT P6SM SKC=



000
FTUS46 KEKA 040520
TAFCEC
TAF
KCEC 040520Z 0406/0506 03005KT P6SM SKC
     FM041800 36007KT P6SM SKC
     FM042100 33010KT P6SM SKC
     FM050300 01005KT P6SM SKC=



000
FTUS46 KEKA 040520
TAFCEC
TAF
KCEC 040520Z 0406/0506 03005KT P6SM SKC
     FM041800 36007KT P6SM SKC
     FM042100 33010KT P6SM SKC
     FM050300 01005KT P6SM SKC=



000
FTUS46 KEKA 040520
TAFACV
TAF
KACV 040520Z 0406/0506 10004KT P6SM FEW015
     FM041800 32005KT P6SM SKC
     FM042000 30008KT P6SM SKC
     FM050200 VRB04KT P6SM SKC=



000
FTUS46 KEKA 040520
TAFUKI
TAF
KUKI 040520Z 0406/0506 00000KT 6SM BR FEW200
     FM041800 VRB04KT P6SM SKC=



000
FTUS46 KEKA 032330
TAFCEC
TAF
KCEC 032330Z 0400/0424 34014G22KT P6SM FEW200
     FM040300 36009KT P6SM FEW200
     FM040600 03005KT P6SM SKC
     FM041800 36007KT P6SM SKC
     FM042100 33010KT P6SM SKC=



000
FTUS46 KEKA 032330
TAFACV
TAF
KACV 032330Z 0400/0424 32011G19KT P6SM SCT200
     FM040300 01006KT P6SM FEW200
     FM040600 10004KT P6SM FEW015
     FM041800 32005KT P6SM SKC
     FM042000 30008KT P6SM SKC=



000
FTUS46 KEKA 032330
TAFUKI
TAF
KUKI 032330Z 0400/0424 VRB05KT P6SM SCT200
     FM040300 00000KT P6SM SCT200
     FM041200 00000KT 6SM BR FEW200
     FM041800 VRB03KT P6SM SKC=



000
FTUS46 KEKA 032024 AAA
TAFCEC
TAF AMD
KCEC 032024Z 0320/0418 34010KT P6SM BKN200
     FM032200 34014G22KT P6SM SCT200
     FM040300 36009KT P6SM FEW200
     FM040600 03005KT P6SM FEW200=



000
FTUS46 KEKA 032024 AAA
TAFCEC
TAF AMD
KCEC 032024Z 0320/0418 34010KT P6SM BKN200
     FM032200 34014G22KT P6SM SCT200
     FM040300 36009KT P6SM FEW200
     FM040600 03005KT P6SM FEW200=



000
FTUS46 KEKA 032024 AAA
TAFACV
TAF AMD
KACV 032024Z 0320/0418 31008KT P6SM BKN200
     FM032300 32011G19KT P6SM SCT200
     FM040300 01006KT P6SM SCT200
     FM040600 10004KT P6SM FEW015=



000
FTUS46 KEKA 032024 AAA
TAFACV
TAF AMD
KACV 032024Z 0320/0418 31008KT P6SM BKN200
     FM032300 32011G19KT P6SM SCT200
     FM040300 01006KT P6SM SCT200
     FM040600 10004KT P6SM FEW015=



000
FTUS46 KEKA 031720
TAFUKI
TAF
KUKI 031720Z 0318/0418 VRB03KT P6SM SKC
     FM032100 30005KT P6SM SCT200
     FM040300 00000KT P6SM SCT200=



000
FTUS46 KEKA 031720
TAFACV
TAF
KACV 031720Z 0318/0418 14004KT P6SM SKC
     FM032000 32011G19KT P6SM SCT200
     FM040300 01006KT P6SM SCT200
     FM040600 10004KT P6SM FEW015=



000
FTUS46 KEKA 031720
TAFCEC
TAF
KCEC 031720Z 0318/0418 34010KT P6SM FEW200
     FM032000 34014G21KT P6SM SCT200
     FM040300 36009KT P6SM SCT200
     FM040600 03005KT P6SM FEW200=



000
FTUS46 KEKA 031137
TAFUKI
TAF
KUKI 031137Z 0312/0412 00000KT P6SM FEW003
     FM031600 VRB03KT P6SM FEW200
     FM032100 30007KT P6SM FEW200
     FM040200 00000KT P6SM SKC=



000
FTUS46 KEKA 031137
TAFCEC
TAF
KCEC 031137Z 0312/0412 02005KT P6SM SKC
     FM031800 36010KT P6SM FEW200
     FM032000 34014G21KT P6SM FEW200
     FM040400 36009KT P6SM SKC
     FM040600 03005KT P6SM SKC=



000
FTUS46 KEKA 031137
TAFACV
TAF
KACV 031137Z 0312/0412 09004KT 6SM BR SKC
     FM031800 35006KT P6SM FEW200
     FM032000 32012G20KT P6SM FEW200
     FM040300 01006KT P6SM SKC
     FM040600 10004KT P6SM FEW015=



000
FTUS46 KEKA 031137
TAFCEC
TAF
KCEC 031137Z 0312/0412 02005KT P6SM SKC
     FM031800 36010KT P6SM FEW200
     FM032000 34014G21KT P6SM FEW200
     FM040400 36009KT P6SM SKC
     FM040600 03005KT P6SM SKC=



000
FTUS46 KEKA 031137
TAFACV
TAF
KACV 031137Z 0312/0412 09004KT 6SM BR SKC
     FM031800 35006KT P6SM FEW200
     FM032000 32012G20KT P6SM FEW200
     FM040300 01006KT P6SM SKC
     FM040600 10004KT P6SM FEW015=



000
FTUS46 KEKA 031137
TAFUKI
TAF
KUKI 031137Z 0312/0412 00000KT P6SM FEW003
     FM031600 VRB03KT P6SM FEW200
     FM032100 30007KT P6SM FEW200
     FM040200 00000KT P6SM SKC=



    US Dept of Commerce
    National Oceanic and Atmospheric Administration
    National Weather Service
    1325 East West Highway
    Silver Spring, MD 20910
    Page Author: NWS Internet Services Team
Disclaimer
Information Quality
Credits
Glossary
Privacy Policy
Freedom of Information Act (FOIA)
About Us
Career Opportunities